Terminal Aerodrome Forecast
Issued by NWS

Home | Current Version | Previous Version | Text Only | Print | Product List | Glossary On
Versions: 1 2 3 4 5 6 7 8 9 10 11 12 13 14 15 16 17 18 19 20 21
000
FTUS43 KMQT 271100
TAFSAW
TAF
KSAW 271126Z 2712/2812 05007KT 1SM -SN OVC005
     FM271400 01009KT 3/4SM -SN OVC003
     FM272000 34011KT 3SM -SN OVC015
     FM272300 30009KT P6SM -SHSN BKN025
     FM280200 27007KT P6SM BKN040
      AMD LTD TO CLD VIS AND WIND 2803/2811=

USA.gov is the U.S. government's official web portal to all federal, state and local government web resources and services.